Surface observations / UK / EGMC

Quebec | Canada | USA | France | UK | Europe | Elsewhere

Display: Info & Location for EGMC | Help decoding METAR

EGMC SOUTHEND-ON-SEA -- UK
Raw surface observations for station EGMC
EGMC 050520Z 26003KT CAVOK 10/07 Q1017=
EGMC 050450Z 26006KT CAVOK 10/07 Q1017=
EGMC 050420Z 27007KT CAVOK 09/06 Q1017=
EGMC 050350Z 27007KT 9999 FEW043 10/06 Q1017=
EGMC 050250Z 27005KT 9999 SCT043 10/06 Q1017=
EGMC 050150Z 27006KT 9999 BKN043 12/07 Q1017=
EGMC 050050Z 28006KT 250V320 9999 BKN045 12/07 Q1018=
EGMC 042350Z 29004KT 260V330 9999 BKN047 12/07 Q1018=
EGMC 042320Z 27004KT 9999 BKN047 12/07 Q1018=
EGMC 042250Z 28004KT 240V300 9999 BKN046 12/07 Q1018=
EGMC 042220Z 29005KT 260V320 9999 BKN047 12/07 Q1018=
EGMC 042150Z 29003KT 9999 BKN046 12/07 Q1018=
EGMC 042120Z 30004KT 9999 BKN048 13/07 Q1018=
EGMC 042050Z 29004KT 9999 BKN048 13/07 Q1018=
EGMC 042020Z 30006KT 9999 BKN048 13/07 Q1018=
EGMC 041950Z 30004KT 9999 BKN048 13/07 Q1018=
EGMC 041920Z 31004KT 9999 BKN048 13/07 Q1018=
EGMC 041850Z 32003KT 9999 FEW034 BKN047 13/07 Q1017=
EGMC 041820Z 33006KT 9999 FEW034 BKN042 13/08 Q1017=
EGMC 041750Z 32006KT 9999 FEW032 BKN043 13/07 Q1017=
EGMC 041720Z 33004KT 9999 BKN045 14/07 Q1017=
EGMC 041650Z 32005KT 290V010 9999 BKN047 14/07 Q1017=
EGMC 041620Z 33004KT 290V010 9999 SCT043 14/07 Q1017=
EGMC 041550Z 32005KT 290V350 9999 SCT044 14/07 Q1017=
EGMC 041520Z 33007KT 9999 SCT042 14/08 Q1017=
EGMC 041450Z 32008KT 290V350 9999 FEW037 15/07 Q1017=
EGMC 041420Z 33007KT 270V350 9999 FEW037 15/07 Q1017=
EGMC 041350Z 32008KT 280V010 9999 FEW037 15/07 Q1017=
EGMC 041320Z 30007KT 260V340 9999 FEW036 15/07 Q1017=
EGMC 041250Z 30007KT 260V320 9999 FEW036 15/07 Q1017=
EGMC 041220Z 31011KT 9999 FEW036 15/06 Q1017=
EGMC 041150Z 30010KT 270V330 9999 FEW036 SCT047 15/06 Q1017=
EGMC 041120Z 32011KT 280V340 9999 FEW037 SCT049 15/07 Q1017=
EGMC 041050Z 31011KT 260V340 9999 FEW030 SCT041 16/07 Q1017=
EGMC 041020Z 31009KT 280V350 9999 SCT035 15/07 Q1017=
EGMC 040950Z 30010KT 260V350 9999 SCT031 15/08 Q1017=
EGMC 040920Z 29009KT 250V330 9999 SCT030 15/08 Q1017=
EGMC 040850Z 28008KT 260V320 9999 FEW020 14/08 Q1016=
EGMC 040820Z 29008KT 260V330 9999 FEW020 13/08 Q1016=
EGMC 040750Z 28009KT 260V320 9999 FEW020 13/08 Q1016=
EGMC 040720Z 27006KT CAVOK 12/08 Q1016=
EGMC 040650Z 27005KT 9999 FEW015 21/08 Q1016=
EGMC 040620Z 28005KT 9999 FEW012 11/08 Q1016=
EGMC 040550Z 28005KT CAVOK 11/08 Q1016=
EGMC 040520Z 28004KT 250V310 CAVOK 11/08 Q1015=